Time;durP1;ratioP1;P1;durP2;ratioP2;P2;SDS_P1;SDS_P2;PMS_P1;PMS_P2;Temp;Humidity;BMP_temperature;BMP_pressure;BME280_temperature;BME280_humidity;BME280_pressure;Samples;Min_cycle;Max_cycle;Signal;HPM_P1;HPM_P2
2022/05/18 00:00:49;;;;;;;9.13;5.10;;;16.90;99.90;;;;;;4964903;28;20042;-80
2022/05/18 00:03:18;;;;;;;10.80;5.15;;;16.90;99.90;;;;;;4965467;28;20056;-79
2022/05/18 00:05:44;;;;;;;11.27;5.03;;;16.90;99.90;;;;;;4963457;28;20525;-79
2022/05/18 00:08:11;;;;;;;10.38;4.50;;;16.80;99.90;;;;;;4985279;28;20042;-83
2022/05/18 00:10:39;;;;;;;8.82;4.93;;;16.80;99.90;;;;;;4999496;28;20046;-83
2022/05/18 00:13:06;;;;;;;18.63;5.38;;;16.80;99.90;;;;;;5000346;28;20053;-79
2022/05/18 00:15:33;;;;;;;8.80;4.90;;;16.80;99.90;;;;;;4979171;28;20174;-79
2022/05/18 00:17:59;;;;;;;14.10;5.68;;;16.80;99.90;;;;;;4977127;28;20050;-80
2022/05/18 00:20:24;;;;;;;8.05;4.97;;;16.70;99.90;;;;;;4976904;28;20053;-81
2022/05/18 00:22:55;;;;;;;7.82;4.63;;;16.70;99.90;;;;;;4977035;28;20038;-80
2022/05/18 00:25:24;;;;;;;8.20;5.35;;;16.70;99.90;;;;;;4977177;28;20263;-81
2022/05/18 00:27:49;;;;;;;9.75;4.78;;;16.70;99.90;;;;;;4960980;28;20096;-80
2022/05/18 00:30:17;;;;;;;7.63;4.45;;;16.70;99.90;;;;;;4976258;28;20401;-81
2022/05/18 00:32:43;;;;;;;7.88;4.95;;;16.70;99.90;;;;;;4976851;28;20038;-80
2022/05/18 00:35:09;;;;;;;7.00;4.40;;;16.60;99.90;;;;;;4976688;28;20399;-79
2022/05/18 00:37:35;;;;;;;10.00;4.18;;;16.60;99.90;;;;;;4976367;28;20038;-80
2022/05/18 00:40:00;;;;;;;15.70;5.30;;;16.60;99.90;;;;;;4975958;28;20042;-79
2022/05/18 00:42:28;;;;;;;8.77;4.70;;;16.60;99.90;;;;;;4976305;28;20489;-79
2022/05/18 00:44:53;;;;;;;7.18;4.20;;;16.50;99.90;;;;;;4960228;28;20046;-80
2022/05/18 00:47:20;;;;;;;7.00;4.63;;;16.50;99.90;;;;;;4976169;28;20092;-80
2022/05/18 00:49:51;;;;;;;7.15;4.57;;;16.50;99.90;;;;;;4975716;28;20043;-80
2022/05/18 00:52:22;;;;;;;9.52;4.80;;;16.50;99.90;;;;;;4976071;28;20034;-79
2022/05/18 00:54:50;;;;;;;12.90;4.85;;;16.50;99.90;;;;;;4960218;28;20548;-79
2022/05/18 00:57:22;;;;;;;9.25;4.38;;;16.40;99.90;;;;;;4975803;28;20085;-79
2022/05/18 00:59:55;;;;;;;10.88;4.20;;;16.40;99.90;;;;;;4975820;28;20545;-79
2022/05/18 01:02:23;;;;;;;8.25;4.00;;;16.40;99.90;;;;;;4975965;28;20042;-80
2022/05/18 01:04:52;;;;;;;7.63;3.92;;;16.30;99.90;;;;;;4959316;28;20052;-80
2022/05/18 01:07:24;;;;;;;9.95;4.68;;;16.30;99.90;;;;;;4975965;28;20042;-81
2022/05/18 01:09:50;;;;;;;7.22;4.32;;;16.20;99.90;;;;;;4976268;28;20034;-80
2022/05/18 01:12:19;;;;;;;9.57;4.07;;;16.30;99.90;;;;;;4976176;28;20413;-79
2022/05/18 01:14:53;;;;;;;8.25;4.38;;;16.30;99.90;;;;;;4975773;28;20039;-79
2022/05/18 01:17:31;;;;;;;8.75;4.68;;;16.30;99.90;;;;;;4975549;28;20038;-79
2022/05/18 01:20:00;;;;;;;8.05;4.10;;;16.30;99.90;;;;;;4975522;28;20606;-80
2022/05/18 01:22:44;;;;;;;6.30;4.00;;;16.30;99.90;;;;;;4975455;28;20169;-80
2022/05/18 01:25:34;;;;;;;5.50;3.85;;;16.20;99.90;;;;;;4959175;28;20057;-79
2022/05/18 01:28:01;;;;;;;8.95;4.22;;;16.20;99.90;;;;;;4975507;28;20513;-80
2022/05/18 01:30:29;;;;;;;9.98;3.95;;;16.10;99.90;;;;;;4975374;28;20042;-79
2022/05/18 01:32:56;;;;;;;7.60;3.97;;;16.10;99.90;;;;;;4992731;28;20117;-79
2022/05/18 01:35:26;;;;;;;8.02;3.80;;;16.10;99.90;;;;;;4975314;28;20109;-79
2022/05/18 01:37:57;;;;;;;6.53;4.25;;;16.10;99.90;;;;;;4959199;28;20131;-80
2022/05/18 01:40:44;;;;;;;9.38;4.82;;;16.10;99.90;;;;;;4958690;28;20081;-80
2022/05/18 01:43:24;;;;;;;8.63;5.28;;;16.00;99.90;;;;;;4975928;28;20050;-81
2022/05/18 01:45:57;;;;;;;7.95;4.45;;;16.00;99.90;;;;;;4959593;28;20046;-82
2022/05/18 01:48:26;;;;;;;9.15;4.32;;;16.00;99.90;;;;;;4976354;28;20212;-81
2022/05/18 01:50:52;;;;;;;9.70;4.70;;;16.00;99.90;;;;;;4975481;28;20418;-81
2022/05/18 01:53:18;;;;;;;10.20;4.45;;;16.00;99.90;;;;;;4976293;28;20508;-82
2022/05/18 01:55:44;;;;;;;8.85;4.75;;;16.00;99.90;;;;;;4976372;28;20042;-81
2022/05/18 01:58:12;;;;;;;7.95;4.35;;;15.90;99.90;;;;;;4976148;28;20047;-81
2022/05/18 02:00:39;;;;;;;8.88;4.97;;;15.90;99.90;;;;;;4976614;28;20057;-82
2022/05/18 02:03:04;;;;;;;10.18;4.82;;;15.90;99.90;;;;;;4959957;28;20057;-81
2022/05/18 02:05:30;;;;;;;8.15;4.70;;;15.90;99.90;;;;;;4960479;28;20405;-81
2022/05/18 02:07:57;;;;;;;7.78;4.78;;;15.90;99.90;;;;;;4962643;28;20177;-81
2022/05/18 02:10:23;;;;;;;11.73;5.05;;;15.80;99.90;;;;;;4979937;28;20042;-81
2022/05/18 02:12:50;;;;;;;8.10;5.15;;;15.70;99.90;;;;;;4964167;28;20052;-81
2022/05/18 02:15:15;;;;;;;9.00;6.00;;;15.60;99.90;;;;;;4964494;28;20049;-81
2022/05/18 02:17:41;;;;;;;11.90;4.65;;;15.60;99.90;;;;;;4980832;28;20035;-81
2022/05/18 02:20:08;;;;;;;11.40;4.75;;;15.50;99.90;;;;;;4981138;28;20035;-81
2022/05/18 02:22:33;;;;;;;9.23;4.60;;;15.50;99.90;;;;;;4980965;28;20092;-81
2022/05/18 02:24:59;;;;;;;6.38;4.70;;;15.40;99.90;;;;;;4977646;28;20046;-80
2022/05/18 02:27:24;;;;;;;8.32;4.47;;;15.30;99.90;;;;;;4959830;28;20045;-80
2022/05/18 02:29:50;;;;;;;10.10;5.03;;;15.30;99.90;;;;;;4977109;28;20038;-79
2022/05/18 02:32:17;;;;;;;13.38;4.80;;;15.30;99.90;;;;;;4994185;28;20259;-79
2022/05/18 02:34:43;;;;;;;7.65;4.07;;;15.30;99.90;;;;;;4977411;28;20393;-79
2022/05/18 02:37:08;;;;;;;10.23;5.47;;;15.20;99.90;;;;;;4976132;28;20042;-81
2022/05/18 02:39:34;;;;;;;13.43;5.78;;;15.20;99.90;;;;;;4959416;28;20035;-79
2022/05/18 02:41:59;;;;;;;8.18;5.38;;;15.10;99.90;;;;;;4959359;28;20425;-79
2022/05/18 02:44:26;;;;;;;10.43;5.57;;;15.10;99.90;;;;;;4975474;28;20489;-79
2022/05/18 02:46:56;;;;;;;9.70;5.63;;;15.10;99.90;;;;;;4974439;28;20129;-79
2022/05/18 02:49:23;;;;;;;9.73;5.03;;;15.10;99.90;;;;;;4974623;28;20122;-81
2022/05/18 02:51:49;;;;;;;7.82;5.93;;;15.10;99.90;;;;;;4976228;28;20113;-79
2022/05/18 02:56:58;;;;;;;9.82;5.45;;;14.90;99.90;;;;;;4974772;28;20109;-79
2022/05/18 02:59:24;;;;;;;10.50;6.22;;;14.90;99.90;;;;;;4974300;28;20046;-79
2022/05/18 03:01:49;;;;;;;10.55;5.50;;;14.90;99.90;;;;;;4974269;28;20054;-79
2022/05/18 03:04:15;;;;;;;7.88;4.78;;;14.80;99.90;;;;;;4975481;28;20109;-81
2022/05/18 03:06:41;;;;;;;8.80;5.28;;;14.80;99.90;;;;;;4973933;28;20527;-79
2022/05/18 03:09:07;;;;;;;9.07;5.90;;;14.80;99.90;;;;;;4974432;28;20038;-79
2022/05/18 03:11:32;;;;;;;12.13;5.60;;;14.80;99.90;;;;;;4973904;28;20444;-79
2022/05/18 03:13:58;;;;;;;9.75;6.20;;;14.70;99.90;;;;;;4974969;28;20038;-79
2022/05/18 03:16:25;;;;;;;8.68;5.97;;;14.70;99.90;;;;;;4974587;28;20073;-79
2022/05/18 03:18:51;;;;;;;14.02;6.50;;;14.60;99.90;;;;;;4973943;28;20513;-79
2022/05/18 03:24:01;;;;;;;10.90;6.05;;;14.50;99.90;;;;;;4974954;28;20047;-79
2022/05/18 03:26:27;;;;;;;10.60;6.47;;;14.50;99.90;;;;;;4984423;28;20042;-79
2022/05/18 03:28:57;;;;;;;12.93;6.28;;;14.40;99.90;;;;;;4975668;28;20101;-80
2022/05/18 03:31:25;;;;;;;11.85;5.90;;;14.40;99.90;;;;;;4977574;28;20117;-79
2022/05/18 03:33:51;;;;;;;9.50;6.22;;;14.30;99.90;;;;;;4961571;28;20038;-79
2022/05/18 03:36:18;;;;;;;12.85;6.97;;;14.30;99.90;;;;;;4977381;28;20043;-79
2022/05/18 03:38:46;;;;;;;10.45;6.40;;;14.20;99.90;;;;;;4977265;28;20042;-79
2022/05/18 03:41:13;;;;;;;11.43;6.90;;;14.20;99.90;;;;;;4977208;28;20093;-79
2022/05/18 03:43:39;;;;;;;11.95;6.20;;;14.10;99.90;;;;;;4977158;28;20125;-79
2022/05/18 03:46:05;;;;;;;9.70;6.20;;;14.10;99.90;;;;;;4992330;28;20050;-80
2022/05/18 03:48:32;;;;;;;12.45;6.28;;;14.10;99.90;;;;;;4999490;28;20574;-82
2022/05/18 03:50:59;;;;;;;12.93;6.55;;;14.10;99.90;;;;;;4990362;28;20053;-79
2022/05/18 03:53:26;;;;;;;12.07;7.53;;;14.10;99.90;;;;;;4977158;28;20473;-80
2022/05/18 03:55:52;;;;;;;12.38;6.60;;;14.10;99.90;;;;;;4976738;28;20513;-80
2022/05/18 03:58:17;;;;;;;10.38;6.20;;;14.10;99.90;;;;;;4976683;28;20054;-80
2022/05/18 04:00:45;;;;;;;11.80;6.85;;;14.10;99.90;;;;;;4976162;28;20086;-80
2022/05/18 04:03:12;;;;;;;11.60;7.05;;;14.10;99.90;;;;;;4976513;28;20100;-81
2022/05/18 04:05:38;;;;;;;9.50;6.55;;;14.10;99.90;;;;;;4976607;28;20050;-80
2022/05/18 04:08:05;;;;;;;16.08;7.00;;;14.00;99.90;;;;;;4960424;28;20502;-79
2022/05/18 04:10:31;;;;;;;11.85;7.07;;;14.00;99.90;;;;;;4976080;28;20074;-79
2022/05/18 04:12:57;;;;;;;12.00;7.40;;;14.00;99.90;;;;;;4976422;28;20030;-81
2022/05/18 04:15:23;;;;;;;10.18;6.57;;;14.00;99.90;;;;;;4976284;28;20054;-80
2022/05/18 04:17:48;;;;;;;12.10;6.63;;;14.00;99.90;;;;;;4976376;28;20416;-79
2022/05/18 04:20:17;;;;;;;12.88;6.97;;;14.00;99.90;;;;;;4959821;28;20040;-78
2022/05/18 04:22:44;;;;;;;12.98;7.03;;;14.00;99.90;;;;;;4976320;28;20042;-79
2022/05/18 04:25:12;;;;;;;10.95;7.15;;;14.00;99.90;;;;;;4976526;28;20049;-77
2022/05/18 04:27:37;;;;;;;14.38;7.22;;;14.00;99.90;;;;;;4976380;28;20065;-78
2022/05/18 04:30:05;;;;;;;10.95;7.10;;;14.10;99.90;;;;;;4976190;28;20116;-77
2022/05/18 04:32:30;;;;;;;14.32;8.00;;;14.20;99.90;;;;;;4976124;28;20054;-77
2022/05/18 04:34:56;;;;;;;9.73;6.65;;;14.30;99.90;;;;;;4976603;28;20121;-78
2022/05/18 04:37:21;;;;;;;17.42;8.55;;;14.40;99.90;;;;;;4976715;28;20042;-77
2022/05/18 04:39:47;;;;;;;22.23;8.57;;;14.50;99.90;;;;;;4975778;28;20085;-77
2022/05/18 04:42:13;;;;;;;16.52;8.35;;;14.70;99.90;;;;;;4959891;28;20465;-78
2022/05/18 04:44:39;;;;;;;17.65;8.63;;;14.80;99.90;;;;;;4976029;28;20083;-78
2022/05/18 04:47:05;;;;;;;11.77;8.18;;;15.00;99.90;;;;;;4975914;28;20110;-78
2022/05/18 04:49:32;;;;;;;17.95;9.32;;;15.10;99.90;;;;;;4976058;28;20064;-80
2022/05/18 04:51:59;;;;;;;12.63;7.35;;;15.30;99.90;;;;;;4975932;28;20051;-79
2022/05/18 04:54:24;;;;;;;13.80;8.40;;;15.50;99.90;;;;;;4959878;28;20458;-79
2022/05/18 04:56:50;;;;;;;16.77;9.23;;;15.60;99.90;;;;;;4975770;28;20112;-78
2022/05/18 04:59:16;;;;;;;16.25;9.77;;;15.90;99.90;;;;;;4975724;28;20038;-78
2022/05/18 05:01:43;;;;;;;15.30;8.68;;;16.10;99.90;;;;;;4975359;28;20042;-77
2022/05/18 05:04:13;;;;;;;15.43;10.32;;;16.30;99.90;;;;;;4975752;28;20421;-78
2022/05/18 05:06:40;;;;;;;41.40;23.48;;;16.70;99.90;;;;;;4976210;28;20108;-78
2022/05/18 05:09:07;;;;;;;14.48;7.53;;;17.30;99.90;;;;;;4976278;28;20101;-77
2022/05/18 05:11:33;;;;;;;13.52;9.20;;;17.90;99.90;;;;;;4977124;28;20042;-78
2022/05/18 05:13:58;;;;;;;13.40;8.90;;;18.60;99.90;;;;;;4993608;28;20051;-78
2022/05/18 05:16:26;;;;;;;12.77;9.77;;;19.10;99.90;;;;;;4975794;28;20053;-77
2022/05/18 05:18:51;;;;;;;11.30;7.80;;;19.50;99.90;;;;;;4975864;28;20469;-78
2022/05/18 05:21:17;;;;;;;14.40;8.32;;;20.00;99.90;;;;;;4975100;28;20140;-78
2022/05/18 05:23:43;;;;;;;14.77;8.68;;;20.40;99.90;;;;;;4976109;28;20057;-78
2022/05/18 05:26:08;;;;;;;13.85;8.35;;;20.80;99.90;;;;;;4975230;28;20077;-78
2022/05/18 05:28:34;;;;;;;11.20;8.45;;;21.00;99.90;;;;;;4975196;28;20077;-78
2022/05/18 05:31:03;;;;;;;13.50;7.13;;;21.30;99.90;;;;;;4975683;28;20050;-79
2022/05/18 05:33:29;;;;;;;13.35;7.38;;;21.60;99.90;;;;;;4975710;28;20038;-80
2022/05/18 05:35:54;;;;;;;9.85;7.25;;;21.90;99.90;;;;;;4993155;28;20057;-80
2022/05/18 05:38:20;;;;;;;8.93;7.32;;;22.10;99.90;;;;;;4975883;28;20129;-79
2022/05/18 05:40:46;;;;;;;11.95;7.20;;;22.30;99.90;;;;;;4976775;28;20102;-80
2022/05/18 05:43:12;;;;;;;9.07;6.38;;;22.60;99.90;;;;;;4993499;28;20117;-80
2022/05/18 05:45:38;;;;;;;16.08;7.47;;;22.80;99.90;;;;;;4974717;28;20104;-79
2022/05/18 05:48:10;;;;;;;13.70;7.97;;;23.00;99.90;;;;;;4974626;28;20409;-80
2022/05/18 05:50:36;;;;;;;13.95;7.82;;;23.30;99.90;;;;;;4974561;28;20393;-80
2022/05/18 05:53:02;;;;;;;15.48;7.53;;;23.30;99.90;;;;;;4974921;28;20049;-80
2022/05/18 05:55:28;;;;;;;14.65;7.43;;;23.50;99.90;;;;;;4974871;28;20038;-80
2022/05/18 05:57:55;;;;;;;14.77;7.25;;;23.70;99.90;;;;;;4975335;28;20042;-79
2022/05/18 06:00:21;;;;;;;10.10;7.28;;;23.80;99.90;;;;;;4971494;28;20505;-82
2022/05/18 06:02:47;;;;;;;15.77;8.13;;;23.90;99.90;;;;;;4974934;28;20117;-81
2022/05/18 06:05:14;;;;;;;11.40;7.35;;;24.00;99.90;;;;;;4953249;28;20130;-82
2022/05/18 06:07:39;;;;;;;10.02;6.82;;;24.00;99.90;;;;;;4975086;28;20130;-82
2022/05/18 06:10:05;;;;;;;8.70;6.45;;;24.20;99.90;;;;;;4992314;28;20564;-82
2022/05/18 06:12:31;;;;;;;14.98;7.70;;;24.30;99.90;;;;;;4958289;28;20101;-82
2022/05/18 06:14:57;;;;;;;13.38;7.32;;;24.40;99.90;;;;;;4985046;28;20031;-82
2022/05/18 06:17:23;;;;;;;33.00;8.07;;;24.50;99.90;;;;;;4974275;28;20129;-82
2022/05/18 06:19:48;;;;;;;10.05;6.88;;;24.60;99.90;;;;;;4973861;28;20069;-82
2022/05/18 06:22:14;;;;;;;21.30;7.90;;;24.70;99.90;;;;;;4952771;28;20043;-81
2022/05/18 06:24:40;;;;;;;11.00;7.15;;;25.00;99.90;;;;;;4985161;28;20035;-81
2022/05/18 06:27:06;;;;;;;12.60;7.40;;;25.20;99.90;;;;;;4979371;28;20047;-81
2022/05/18 06:29:32;;;;;;;17.63;7.70;;;25.30;99.90;;;;;;4991059;28;20046;-83
2022/05/18 06:31:58;;;;;;;29.05;8.23;;;25.40;99.90;;;;;;4974727;28;20046;-82
2022/05/18 06:34:24;;;;;;;21.65;8.13;;;25.70;99.90;;;;;;4974428;28;20057;-81
2022/05/18 06:36:50;;;;;;;9.52;7.50;;;25.80;99.90;;;;;;4975678;28;20050;-81
2022/05/18 06:39:18;;;;;;;9.75;7.70;;;26.00;99.90;;;;;;4975262;28;20057;-81
2022/05/18 06:41:45;;;;;;;13.55;6.63;;;26.20;99.90;;;;;;4992194;28;20049;-83
2022/05/18 06:44:11;;;;;;;22.35;7.55;;;26.40;99.90;;;;;;4959752;28;20054;-82
2022/05/18 06:46:38;;;;;;;9.57;6.82;;;26.50;99.90;;;;;;4976068;28;20053;-80
2022/05/18 06:49:06;;;;;;;8.40;6.13;;;26.50;99.90;;;;;;4977209;28;20045;-81
2022/05/18 06:51:35;;;;;;;13.95;7.05;;;26.70;99.90;;;;;;4976633;28;20043;-82
2022/05/18 06:54:01;;;;;;;20.00;6.93;;;26.90;99.90;;;;;;4976098;28;20046;-81
2022/05/18 06:56:33;;;;;;;8.98;6.30;;;26.80;99.90;;;;;;4976861;28;20576;-81
2022/05/18 06:59:00;;;;;;;15.15;7.30;;;27.00;99.90;;;;;;4976885;28;20050;-81
2022/05/18 07:01:27;;;;;;;10.90;6.60;;;26.90;99.90;;;;;;4993435;28;20054;-81
2022/05/18 07:03:53;;;;;;;9.93;6.55;;;27.00;99.90;;;;;;4997395;28;20046;-82
2022/05/18 07:06:22;;;;;;;11.15;7.38;;;27.10;99.90;;;;;;4964449;28;20038;-81
2022/05/18 07:08:50;;;;;;;9.40;5.97;;;27.20;99.90;;;;;;4981407;28;20497;-81
2022/05/18 07:11:16;;;;;;;7.15;6.43;;;27.20;99.90;;;;;;4977804;28;20035;-84
2022/05/18 07:13:42;;;;;;;14.80;8.27;;;27.30;99.90;;;;;;4983485;28;20097;-83
2022/05/18 07:16:08;;;;;;;36.80;8.63;;;27.50;99.90;;;;;;4977527;28;20143;-82
2022/05/18 07:18:34;;;;;;;14.65;6.65;;;27.60;99.20;;;;;;4977566;28;20085;-81
2022/05/18 07:21:03;;;;;;;12.18;6.90;;;27.70;99.30;;;;;;4993691;28;20046;-82
2022/05/18 07:23:29;;;;;;;7.63;5.68;;;27.90;98.30;;;;;;4960010;28;20524;-82
2022/05/18 07:25:56;;;;;;;8.80;6.28;;;28.10;98.30;;;;;;4993748;28;20046;-82
2022/05/18 07:28:22;;;;;;;9.38;6.53;;;28.40;97.10;;;;;;4976310;28;20039;-82
2022/05/18 07:30:50;;;;;;;7.90;5.90;;;28.40;96.60;;;;;;4976233;28;20045;-82
2022/05/18 07:33:16;;;;;;;7.57;6.00;;;28.60;97.60;;;;;;4992574;28;20048;-82
2022/05/18 07:35:42;;;;;;;595.03;105.13;;;28.70;97.60;;;;;;4993942;28;20086;-82
2022/05/18 07:38:08;;;;;;;65.68;12.30;;;28.90;96.70;;;;;;4976276;28;20397;-82
2022/05/18 07:40:34;;;;;;;16.80;6.88;;;29.00;94.80;;;;;;4975895;28;20042;-82
2022/05/18 07:43:01;;;;;;;12.60;5.45;;;29.10;94.60;;;;;;4993701;28;20057;-82
2022/05/18 07:45:27;;;;;;;8.55;5.68;;;29.20;94.90;;;;;;4975957;28;20081;-82
2022/05/18 07:47:53;;;;;;;9.63;4.78;;;29.40;92.60;;;;;;4976193;28;20494;-82
2022/05/18 07:50:24;;;;;;;13.45;5.72;;;29.40;91.90;;;;;;4959644;28;20036;-82
2022/05/18 07:52:51;;;;;;;6.32;4.82;;;29.50;90.30;;;;;;4975954;28;20070;-83
2022/05/18 07:55:17;;;;;;;6.63;4.75;;;29.50;90.80;;;;;;4993062;28;20043;-82
2022/05/18 07:57:43;;;;;;;7.07;4.90;;;29.40;91.90;;;;;;4960119;28;20041;-82
2022/05/18 08:00:11;;;;;;;8.60;4.93;;;29.70;90.50;;;;;;4959398;28;20489;-82
2022/05/18 08:02:37;;;;;;;8.45;5.00;;;29.50;91.30;;;;;;4959681;28;20137;-82
2022/05/18 08:05:04;;;;;;;7.15;4.68;;;29.50;91.10;;;;;;4975581;28;20125;-82
2022/05/18 08:07:29;;;;;;;7.53;5.13;;;29.50;91.30;;;;;;4976315;28;20042;-82
2022/05/18 08:15:23;;;;;;;9.57;4.63;;;29.60;90.40;;;;;;4975278;28;20180;-82
2022/05/18 08:17:50;;;;;;;13.82;5.05;;;29.70;91.60;;;;;;4959691;28;20156;-83
2022/05/18 08:20:19;;;;;;;1300.65;283.70;;;29.70;90.00;;;;;;4975757;28;20102;-82
2022/05/18 08:22:47;;;;;;;1999.90;416.75;;;29.80;88.20;;;;;;4951250;28;1236794;-83
2022/05/18 08:25:14;;;;;;;276.67;38.45;;;29.80;88.50;;;;;;4977294;28;20047;-82
2022/05/18 08:28:08;;;;;;;14.02;5.72;;;29.80;88.10;;;;;;4960642;28;20069;-82
2022/05/18 08:31:04;;;;;;;14.18;5.30;;;29.70;86.50;;;;;;4959128;28;20050;-82
2022/05/18 08:34:25;;;;;;;9.65;4.63;;;29.70;89.80;;;;;;4979528;28;20037;-83
2022/05/18 08:37:00;;;;;;;9.10;4.82;;;29.70;82.60;;;;;;4966777;28;20056;-83
2022/05/18 08:39:26;;;;;;;11.23;4.57;;;29.70;85.20;;;;;;4960919;28;20546;-82
2022/05/18 08:41:56;;;;;;;14.88;5.40;;;29.80;83.80;;;;;;4993070;28;20535;-82
2022/05/18 08:45:23;;;;;;;29.95;6.13;;;29.80;84.40;;;;;;4976601;28;20446;-82
2022/05/18 08:51:45;;;;;;;9.07;5.13;;;30.00;81.00;;;;;;4959506;28;20038;-82
2022/05/18 08:54:59;;;;;;;16.48;5.32;;;30.10;82.80;;;;;;4975929;28;20050;-83
2022/05/18 09:01:37;;;;;;;114.72;15.45;;;29.90;70.70;;;;;;4956625;28;20057;-84
2022/05/18 09:05:04;;;;;;;300.90;37.88;;;29.90;79.70;;;;;;4977072;28;20069;-81
2022/05/18 09:08:10;;;;;;;20.55;5.18;;;29.90;76.90;;;;;;4949242;28;20130;-83
2022/05/18 09:11:04;;;;;;;28.95;6.43;;;29.80;80.40;;;;;;4960683;28;20042;-83
2022/05/18 09:13:33;;;;;;;14.82;5.25;;;29.80;73.00;;;;;;4963169;28;20117;-82
2022/05/18 09:16:10;;;;;;;13.90;5.43;;;29.90;80.40;;;;;;4963690;28;20046;-83
2022/05/18 09:28:09;;;;;;;6.85;4.85;;;30.20;76.20;;;;;;5838836;22;20054;-81
2022/05/18 09:34:36;;;;;;;8.48;4.95;;;30.40;73.10;;;;;;5006723;28;20077;-81
2022/05/18 09:37:23;;;;;;;9.00;5.82;;;30.70;70.00;;;;;;5008206;28;20072;-82
2022/05/18 09:40:04;;;;;;;10.45;5.97;;;30.80;72.10;;;;;;5002208;28;20356;-82
2022/05/18 09:42:38;;;;;;;8.02;6.25;;;30.80;72.30;;;;;;5002143;28;20072;-82
2022/05/18 09:45:08;;;;;;;16.42;7.30;;;30.90;75.90;;;;;;5003061;28;20398;-81
2022/05/18 09:48:00;;;;;;;10.70;6.38;;;31.00;70.60;;;;;;5002811;28;20046;-80
2022/05/18 09:50:26;;;;;;;9.25;6.30;;;30.90;73.40;;;;;;5009393;28;20080;-81
2022/05/18 09:52:52;;;;;;;12.25;7.65;;;30.90;75.30;;;;;;5002082;28;20524;-81
2022/05/18 09:55:22;;;;;;;8.02;6.90;;;31.00;73.70;;;;;;4986427;28;20045;-81
2022/05/18 09:57:57;;;;;;;8.70;6.82;;;31.00;75.40;;;;;;5003338;28;20394;-81
2022/05/18 10:00:26;;;;;;;11.65;7.05;;;30.90;70.20;;;;;;5003766;28;20053;-81
2022/05/18 10:08:33;;;;;;;15.00;8.40;;;30.80;69.60;;;;;;4999421;28;20052;-82
2022/05/18 10:11:12;;;;;;;10.52;7.68;;;30.80;68.50;;;;;;4999098;28;20042;-83
2022/05/18 10:13:49;;;;;;;12.57;7.78;;;30.60;71.10;;;;;;5000440;28;20061;-82
2022/05/18 10:16:28;;;;;;;11.82;7.40;;;30.50;66.30;;;;;;5001837;28;20041;-83
2022/05/18 10:18:58;;;;;;;12.40;7.35;;;30.40;65.40;;;;;;4983775;28;20046;-85
2022/05/18 10:21:50;;;;;;;13.50;8.20;;;30.40;68.30;;;;;;4990933;28;20073;-82
2022/05/18 10:25:11;;;;;;;17.73;8.18;;;30.30;65.10;;;;;;4981800;28;20130;-82
2022/05/18 10:27:39;;;;;;;13.60;8.55;;;30.30;67.60;;;;;;4956353;28;20054;-83
2022/05/18 10:30:25;;;;;;;13.52;8.38;;;30.20;65.10;;;;;;5016458;28;20052;-84
2022/05/18 10:33:04;;;;;;;13.27;8.27;;;30.20;66.30;;;;;;4996853;28;20084;-82
2022/05/18 10:35:44;;;;;;;13.45;9.85;;;30.30;67.70;;;;;;4998993;28;20446;-83
2022/05/18 10:38:25;;;;;;;13.35;8.80;;;30.10;64.80;;;;;;4989628;28;20060;-83
2022/05/18 10:41:03;;;;;;;13.15;8.45;;;30.10;64.10;;;;;;5005999;28;20440;-83
2022/05/18 10:43:37;;;;;;;14.10;9.90;;;30.20;66.60;;;;;;4990638;28;20050;-84
2022/05/18 10:46:18;;;;;;;10.45;7.43;;;30.20;63.10;;;;;;5000533;28;20050;-84
2022/05/18 10:48:56;;;;;;;16.38;10.80;;;30.40;69.60;;;;;;4981302;28;20061;-83
2022/05/18 10:51:49;;;;;;;14.80;10.07;;;30.40;60.70;;;;;;4997454;28;20045;-82
2022/05/18 10:54:27;;;;;;;12.05;8.38;;;30.20;62.50;;;;;;4997782;28;20053;-83
2022/05/18 10:57:08;;;;;;;15.10;9.27;;;30.30;65.30;;;;;;5031000;28;20081;-83
2022/05/18 10:59:43;;;;;;;14.35;9.77;;;30.50;64.30;;;;;;4982609;28;20042;-82
2022/05/18 11:02:48;;;;;;;16.75;10.02;;;30.40;63.50;;;;;;5011141;28;20061;-84
2022/05/18 11:05:44;;;;;;;15.68;10.65;;;30.40;68.90;;;;;;4993584;28;20049;-82
2022/05/18 11:08:16;;;;;;;20.02;11.25;;;30.30;64.80;;;;;;4993800;28;20121;-82
2022/05/18 11:10:47;;;;;;;18.25;11.80;;;30.20;66.00;;;;;;4994938;28;20405;-81
2022/05/18 11:13:36;;;;;;;23.75;11.35;;;30.20;68.00;;;;;;4977756;28;20038;-82
2022/05/18 11:16:25;;;;;;;16.38;12.68;;;30.10;68.10;;;;;;5003056;28;20390;-83
2022/05/18 11:19:02;;;;;;;14.55;11.98;;;30.00;67.00;;;;;;5010986;28;20068;-82
2022/05/18 11:21:42;;;;;;;19.25;11.60;;;30.00;69.50;;;;;;5010642;28;20037;-81
2022/05/18 11:24:25;;;;;;;17.65;12.45;;;30.10;79.60;;;;;;5016065;28;20069;-82
2022/05/18 11:27:05;;;;;;;19.77;13.88;;;30.10;74.20;;;;;;5007109;28;20074;-82
2022/05/18 11:29:40;;;;;;;19.25;13.63;;;30.00;71.10;;;;;;5002197;28;20105;-82
2022/05/18 11:32:30;;;;;;;16.40;13.98;;;30.00;73.90;;;;;;4999978;28;20132;-82
2022/05/18 11:35:19;;;;;;;17.95;11.05;;;30.00;71.30;;;;;;5000488;28;20038;-85
2022/05/18 11:38:23;;;;;;;17.70;10.40;;;29.80;76.50;;;;;;4983654;28;20046;-81
2022/05/18 11:41:01;;;;;;;19.58;11.55;;;29.80;72.60;;;;;;4974694;28;20054;-83
2022/05/18 11:43:45;;;;;;;17.15;11.48;;;29.70;74.50;;;;;;4996711;28;20381;-81
2022/05/18 11:46:44;;;;;;;19.15;12.82;;;29.50;74.30;;;;;;4991096;28;20125;-81
2022/05/18 11:49:28;;;;;;;15.38;10.50;;;29.30;76.60;;;;;;4992950;28;20100;-81
2022/05/18 11:52:12;;;;;;;19.70;12.38;;;29.30;82.50;;;;;;4994570;28;20038;-81
2022/05/18 11:54:59;;;;;;;13.43;11.00;;;29.30;82.20;;;;;;4979173;28;20093;-81
2022/05/18 11:58:10;;;;;;;18.23;11.80;;;29.30;80.00;;;;;;4996234;28;20500;-81
2022/05/18 12:00:56;;;;;;;15.43;10.85;;;29.30;76.20;;;;;;4996325;28;20100;-81
2022/05/18 12:03:27;;;;;;;17.83;10.65;;;29.30;78.10;;;;;;5002785;28;20038;-80
2022/05/18 12:06:05;;;;;;;;;;;29.40;78.30;;;;;;4986346;28;20519;-81
2022/05/18 12:09:04;;;;;;;15.30;11.68;;;29.50;82.70;;;;;;4996876;28;20111;-81
2022/05/18 12:11:47;;;;;;;17.13;12.88;;;29.70;78.20;;;;;;4999355;28;20049;-81
2022/05/18 12:14:21;;;;;;;14.98;12.00;;;29.80;77.70;;;;;;5009522;28;20489;-77
2022/05/18 12:16:58;;;;;;;19.75;13.82;;;29.80;79.70;;;;;;5010862;28;20542;-77
2022/05/18 12:19:45;;;;;;;20.88;13.48;;;29.90;79.20;;;;;;4996867;28;20404;-79
2022/05/18 12:22:19;;;;;;;18.58;14.23;;;29.90;81.70;;;;;;4998502;28;20038;-78
2022/05/18 12:24:47;;;;;;;16.73;12.90;;;29.80;86.50;;;;;;4995307;28;20038;-76
2022/05/18 12:27:15;;;;;;;18.75;13.15;;;29.80;83.50;;;;;;5006102;28;20041;-78
2022/05/18 12:29:41;;;;;;;20.15;14.07;;;29.80;84.20;;;;;;5013285;28;20113;-77
2022/05/18 12:32:08;;;;;;;17.60;12.75;;;29.90;85.70;;;;;;5012901;28;20401;-79
2022/05/18 12:34:33;;;;;;;17.73;13.90;;;30.00;86.80;;;;;;4994990;28;20038;-82
2022/05/18 12:37:23;;;;;;;18.30;12.73;;;29.90;84.50;;;;;;4995089;28;20400;-79
2022/05/18 12:40:03;;;;;;;15.65;12.25;;;29.90;90.00;;;;;;4989811;28;20069;-79
2022/05/18 12:42:33;;;;;;;16.58;10.65;;;29.70;87.90;;;;;;4995722;28;20093;-78
2022/05/18 12:45:13;;;;;;;17.23;12.18;;;29.50;88.20;;;;;;4986015;28;20053;-79
2022/05/18 12:47:39;;;;;;;16.83;11.52;;;29.20;90.00;;;;;;4989174;28;20496;-79
2022/05/18 12:50:11;;;;;;;15.25;11.32;;;29.00;91.30;;;;;;4994989;28;20088;-79
2022/05/18 12:52:36;;;;;;;16.13;11.68;;;29.00;91.60;;;;;;5008290;28;20453;-79
2022/05/18 12:55:20;;;;;;;15.05;10.93;;;28.90;91.60;;;;;;4976771;28;20034;-80
2022/05/18 12:57:51;;;;;;;20.63;12.43;;;29.00;92.20;;;;;;4995523;28;20042;-80
2022/05/18 13:00:23;;;;;;;19.17;11.60;;;29.00;91.90;;;;;;4994531;28;20489;-80
2022/05/18 13:03:18;;;;;;;18.58;12.50;;;29.00;92.00;;;;;;4994566;28;20042;-80
2022/05/18 13:05:46;;;;;;;18.55;11.98;;;28.90;92.30;;;;;;4995221;28;20053;-80
2022/05/18 13:08:35;;;;;;;21.48;12.05;;;28.90;92.70;;;;;;4993844;28;20073;-80
2022/05/18 13:11:19;;;;;;;16.95;12.32;;;29.00;93.70;;;;;;4987113;28;20049;-81
2022/05/18 13:14:04;;;;;;;16.85;12.65;;;29.00;93.10;;;;;;4989672;28;20049;-82
2022/05/18 13:16:38;;;;;;;16.75;12.27;;;29.00;92.50;;;;;;4959793;28;20500;-82
2022/05/18 13:19:13;;;;;;;17.08;10.18;;;29.00;90.70;;;;;;4976456;28;20125;-81
2022/05/18 13:22:00;;;;;;;14.18;10.68;;;28.90;92.30;;;;;;4993304;28;20406;-83
2022/05/18 13:24:44;;;;;;;16.95;11.20;;;29.00;92.70;;;;;;4976814;28;20122;-81
2022/05/18 13:27:15;;;;;;;17.27;9.77;;;29.00;93.10;;;;;;4976669;28;20078;-81
2022/05/18 13:29:42;;;;;;;14.30;9.50;;;28.90;93.10;;;;;;4976061;28;20057;-81
2022/05/18 13:32:11;;;;;;;16.30;11.25;;;29.00;92.90;;;;;;4960586;28;20047;-81
2022/05/18 13:34:47;;;;;;;14.35;11.23;;;29.00;92.60;;;;;;4993892;28;20046;-81
2022/05/18 13:37:12;;;;;;;21.15;12.10;;;28.90;92.20;;;;;;4976184;28;20382;-81
2022/05/18 13:39:43;;;;;;;16.55;10.40;;;28.70;92.40;;;;;;4959351;28;20053;-81